Time;durP1;ratioP1;P1;durP2;ratioP2;P2;SDS_P1;SDS_P2;PMS_P1;PMS_P2;Temp;Humidity;BMP_temperature;BMP_pressure;BME280_temperature;BME280_humidity;BME280_pressure;Samples;Min_cycle;Max_cycle;Signal;HPM_P1;HPM_P2
2020/12/26 00:01:39;;;;;;;23.38;10.32;;;2.20;99.90;;;;;;4161633;28;20033;-79
2020/12/26 00:03:40;;;;;;;15.98;9.23;;;2.20;99.90;;;;;;4179547;28;20112;-79
2020/12/26 00:05:41;;;;;;;21.02;10.25;;;2.30;99.90;;;;;;4179560;28;20048;-79
2020/12/26 00:07:42;;;;;;;25.02;10.07;;;2.30;99.90;;;;;;4174821;28;20079;-79
2020/12/26 00:09:42;;;;;;;22.17;10.88;;;2.30;99.90;;;;;;4179458;28;20025;-79
2020/12/26 00:11:43;;;;;;;16.85;9.73;;;2.30;99.90;;;;;;4179116;28;20036;-79
2020/12/26 00:13:45;;;;;;;15.88;9.57;;;2.30;99.90;;;;;;4179355;28;20115;-79
2020/12/26 00:15:46;;;;;;;20.30;10.40;;;2.30;99.90;;;;;;4172945;28;20056;-80
2020/12/26 00:17:47;;;;;;;18.95;9.25;;;2.40;99.90;;;;;;4179387;28;20029;-79
2020/12/26 00:19:47;;;;;;;14.55;10.00;;;2.30;99.90;;;;;;4161500;28;20484;-79
2020/12/26 00:21:48;;;;;;;21.92;10.52;;;2.30;99.90;;;;;;4174393;28;20503;-80
2020/12/26 00:23:49;;;;;;;21.38;11.23;;;2.40;99.90;;;;;;4179290;28;20055;-80
2020/12/26 00:25:49;;;;;;;23.98;12.73;;;2.40;99.90;;;;;;4179294;28;20120;-80
2020/12/26 00:27:50;;;;;;;15.45;9.68;;;2.40;99.90;;;;;;4179489;28;20028;-80
2020/12/26 00:29:50;;;;;;;16.25;10.13;;;2.40;99.90;;;;;;4179277;28;20029;-80
2020/12/26 00:31:52;;;;;;;14.63;8.35;;;2.40;99.90;;;;;;4165587;28;20398;-79
2020/12/26 00:33:52;;;;;;;24.20;10.18;;;2.40;99.90;;;;;;4179001;28;20530;-79
2020/12/26 00:35:53;;;;;;;14.65;9.32;;;2.50;99.90;;;;;;4179187;28;20033;-80
2020/12/26 00:37:54;;;;;;;17.23;10.27;;;2.60;99.90;;;;;;4163983;28;20503;-79
2020/12/26 00:39:54;;;;;;;19.88;9.45;;;2.60;99.90;;;;;;4177406;28;20454;-79
2020/12/26 00:41:55;;;;;;;12.30;9.25;;;2.60;99.90;;;;;;4171463;28;20488;-79
2020/12/26 00:43:55;;;;;;;29.17;12.63;;;2.60;99.90;;;;;;4177341;28;20495;-79
2020/12/26 00:45:56;;;;;;;22.23;9.90;;;2.70;99.90;;;;;;4159260;28;20033;-79
2020/12/26 00:47:56;;;;;;;17.70;10.57;;;2.70;99.90;;;;;;4176980;28;20033;-79
2020/12/26 00:49:57;;;;;;;21.15;9.75;;;2.70;99.90;;;;;;4177590;28;20433;-80
2020/12/26 00:51:57;;;;;;;14.00;8.63;;;2.70;99.90;;;;;;4177226;28;20032;-79
2020/12/26 00:53:58;;;;;;;18.17;7.97;;;2.70;99.90;;;;;;4177425;28;20037;-80
2020/12/26 00:55:58;;;;;;;17.33;9.57;;;2.80;99.90;;;;;;4177217;28;20032;-79
2020/12/26 00:57:59;;;;;;;15.65;9.07;;;2.80;99.90;;;;;;4177173;28;20024;-79
2020/12/26 01:00:00;;;;;;;11.20;8.02;;;2.80;99.90;;;;;;4159226;28;20036;-79
2020/12/26 01:02:00;;;;;;;16.20;9.40;;;2.80;99.90;;;;;;4159372;28;20095;-79
2020/12/26 01:04:01;;;;;;;15.88;8.63;;;2.80;99.90;;;;;;4176818;28;20112;-78
2020/12/26 01:06:01;;;;;;;16.23;8.82;;;2.80;99.90;;;;;;4178351;28;20108;-79
2020/12/26 01:08:02;;;;;;;15.40;9.18;;;2.90;99.90;;;;;;4150401;28;20159;-79
2020/12/26 01:10:04;;;;;;;17.80;9.07;;;2.90;99.90;;;;;;4178782;28;20082;-79
2020/12/26 01:12:05;;;;;;;13.73;8.93;;;2.90;99.90;;;;;;4160830;28;20034;-79
2020/12/26 01:14:05;;;;;;;16.50;9.05;;;2.90;99.90;;;;;;4160766;28;20041;-79
2020/12/26 01:16:11;;;;;;;14.68;10.40;;;2.90;99.90;;;;;;4178744;28;20029;-79
2020/12/26 01:18:11;;;;;;;14.32;9.10;;;2.90;99.90;;;;;;4178744;28;20029;-79
2020/12/26 01:20:12;;;;;;;20.52;9.65;;;2.90;99.90;;;;;;4178593;28;20128;-79
2020/12/26 01:22:14;;;;;;;20.70;11.30;;;2.90;99.90;;;;;;4146891;28;20030;-79
2020/12/26 01:24:15;;;;;;;18.20;10.07;;;2.90;99.90;;;;;;4178883;28;20503;-79
2020/12/26 01:26:15;;;;;;;14.68;9.50;;;2.90;99.90;;;;;;4160837;28;20022;-79
2020/12/26 01:28:16;;;;;;;15.13;8.65;;;2.90;99.90;;;;;;4178641;28;20510;-79
2020/12/26 01:30:17;;;;;;;19.35;8.35;;;2.90;99.90;;;;;;4178468;28;20051;-79
2020/12/26 01:32:18;;;;;;;18.33;8.68;;;2.90;99.90;;;;;;4178491;28;20033;-79
2020/12/26 01:34:19;;;;;;;11.27;8.48;;;2.90;99.90;;;;;;4160838;28;20029;-79
2020/12/26 01:36:20;;;;;;;15.63;8.93;;;3.00;99.90;;;;;;4160597;28;20119;-79
2020/12/26 01:38:20;;;;;;;14.52;9.95;;;3.00;99.90;;;;;;4178598;28;20033;-79
2020/12/26 01:40:21;;;;;;;15.77;8.93;;;3.00;99.90;;;;;;4178731;28;20029;-79
2020/12/26 01:42:22;;;;;;;15.85;10.43;;;3.00;99.90;;;;;;4178406;28;20032;-79
2020/12/26 01:44:22;;;;;;;20.23;8.88;;;3.00;99.90;;;;;;4178492;28;20425;-79
2020/12/26 01:46:27;;;;;;;14.27;9.13;;;3.00;99.90;;;;;;4160476;28;20104;-79
2020/12/26 01:48:28;;;;;;;17.92;9.52;;;3.00;99.90;;;;;;4178381;28;20036;-79
2020/12/26 01:50:28;;;;;;;15.20;9.85;;;2.90;99.90;;;;;;4180750;28;20100;-79
2020/12/26 01:52:29;;;;;;;15.90;9.70;;;3.00;99.90;;;;;;4181341;28;20033;-79
2020/12/26 01:54:30;;;;;;;14.65;9.68;;;2.90;99.90;;;;;;4181340;28;20120;-79
2020/12/26 01:56:32;;;;;;;16.58;10.05;;;3.10;99.90;;;;;;4181546;28;20025;-79
2020/12/26 01:58:35;;;;;;;19.45;11.32;;;2.90;99.90;;;;;;4181407;28;20036;-79
2020/12/26 02:00:35;;;;;;;15.30;9.20;;;2.90;99.90;;;;;;4181362;28;20028;-79
2020/12/26 02:02:36;;;;;;;16.65;10.50;;;2.90;99.90;;;;;;4163665;28;20475;-79
2020/12/26 02:04:36;;;;;;;14.93;9.35;;;3.00;99.90;;;;;;4163570;28;20034;-79
2020/12/26 02:06:46;;;;;;;15.15;9.45;;;3.00;99.90;;;;;;4181170;28;20435;-78
2020/12/26 02:08:47;;;;;;;13.82;10.65;;;3.20;99.90;;;;;;4181502;28;20029;-78
2020/12/26 02:10:47;;;;;;;18.88;9.65;;;2.90;99.90;;;;;;4181211;28;20442;-78
2020/12/26 02:12:48;;;;;;;18.25;10.18;;;2.80;99.90;;;;;;4181214;28;20215;-78
2020/12/26 02:14:48;;;;;;;18.58;10.85;;;2.90;99.90;;;;;;4180850;28;20067;-78
2020/12/26 02:16:50;;;;;;;17.48;11.75;;;2.80;99.90;;;;;;4181063;28;20025;-78
2020/12/26 02:18:51;;;;;;;17.27;11.45;;;2.80;99.90;;;;;;4181001;28;20392;-78
2020/12/26 02:20:52;;;;;;;16.33;10.55;;;2.80;99.90;;;;;;4163361;28;20113;-78
2020/12/26 02:22:53;;;;;;;18.23;11.32;;;2.80;99.90;;;;;;4180870;28;20025;-78
2020/12/26 02:24:54;;;;;;;17.73;11.20;;;2.70;99.90;;;;;;4181013;28;20025;-78
2020/12/26 02:26:54;;;;;;;14.73;9.77;;;2.80;99.90;;;;;;4180866;28;20136;-78
2020/12/26 02:28:56;;;;;;;15.63;9.57;;;2.70;99.90;;;;;;4180584;28;20021;-78
2020/12/26 02:30:56;;;;;;;18.08;10.85;;;3.00;99.90;;;;;;4180738;28;20021;-78
2020/12/26 02:32:57;;;;;;;15.75;9.23;;;2.80;99.90;;;;;;4180748;28;20036;-77
2020/12/26 02:34:57;;;;;;;18.20;10.65;;;2.70;99.90;;;;;;4163110;28;20526;-78
2020/12/26 02:36:58;;;;;;;17.63;10.63;;;2.70;99.90;;;;;;4180616;28;20025;-78
2020/12/26 02:38:59;;;;;;;17.80;10.50;;;2.70;99.90;;;;;;4164584;28;20384;-77
2020/12/26 02:40:59;;;;;;;13.60;9.02;;;2.70;99.90;;;;;;4177633;28;20025;-77
2020/12/26 02:43:00;;;;;;;18.52;10.88;;;2.70;99.90;;;;;;4169793;28;20699;-78
2020/12/26 02:45:00;;;;;;;14.80;9.95;;;2.70;99.90;;;;;;4180612;28;20407;-79
2020/12/26 02:47:01;;;;;;;14.65;9.75;;;2.70;99.90;;;;;;4162364;28;20028;-75
2020/12/26 02:49:01;;;;;;;15.80;10.25;;;3.20;99.90;;;;;;4180513;28;20037;-76
2020/12/26 02:51:02;;;;;;;16.17;11.27;;;2.50;99.90;;;;;;4162573;28;20511;-77
2020/12/26 02:53:03;;;;;;;17.40;10.70;;;2.60;99.90;;;;;;4180295;28;20033;-79
2020/12/26 02:55:03;;;;;;;12.93;9.32;;;2.50;99.90;;;;;;4178841;28;20051;-78
2020/12/26 02:57:04;;;;;;;20.05;10.20;;;2.60;99.90;;;;;;4180250;28;20052;-78
2020/12/26 02:59:09;;;;;;;16.48;10.07;;;2.60;99.90;;;;;;4180219;28;20025;-78
2020/12/26 03:01:10;;;;;;;17.80;10.05;;;2.60;99.90;;;;;;4161809;28;20116;-78
2020/12/26 03:03:11;;;;;;;17.00;11.40;;;2.50;99.90;;;;;;4180134;28;20032;-78
2020/12/26 03:05:11;;;;;;;18.13;10.85;;;2.50;99.90;;;;;;4180306;28;20040;-78
2020/12/26 03:07:12;;;;;;;26.58;12.45;;;2.50;99.90;;;;;;4180204;28;20040;-77
2020/12/26 03:09:13;;;;;;;17.75;12.20;;;2.50;99.90;;;;;;4180553;28;20396;-79
2020/12/26 03:11:13;;;;;;;22.08;12.82;;;2.50;99.90;;;;;;4180089;28;20416;-80
2020/12/26 03:13:14;;;;;;;19.95;13.88;;;2.50;99.90;;;;;;4162051;28;20611;-78
2020/12/26 03:15:16;;;;;;;25.40;14.50;;;2.50;99.90;;;;;;4162436;28;20172;-77
2020/12/26 03:17:16;;;;;;;18.42;12.63;;;2.30;99.90;;;;;;4162300;28;20026;-79
2020/12/26 03:19:17;;;;;;;22.20;15.60;;;2.40;99.90;;;;;;4180124;28;20048;-78
2020/12/26 03:21:17;;;;;;;23.27;16.17;;;2.30;99.90;;;;;;4179839;28;20087;-77
2020/12/26 03:23:18;;;;;;;23.95;16.38;;;3.20;99.90;;;;;;4180077;28;20414;-78
2020/12/26 03:25:19;;;;;;;28.48;17.70;;;2.30;99.90;;;;;;4180035;28;20070;-77
2020/12/26 03:27:20;;;;;;;28.92;18.73;;;2.20;99.90;;;;;;4179650;28;20025;-77
2020/12/26 03:29:21;;;;;;;26.65;17.60;;;2.20;99.90;;;;;;4180021;28;21112;-77
2020/12/26 03:31:21;;;;;;;33.65;19.60;;;2.10;99.90;;;;;;4179761;28;20047;-78
2020/12/26 03:33:22;;;;;;;32.08;19.27;;;2.10;99.90;;;;;;4179998;28;20384;-78
2020/12/26 03:35:23;;;;;;;30.33;19.15;;;2.10;99.90;;;;;;4179595;28;20032;-77
2020/12/26 03:37:23;;;;;;;27.65;17.20;;;2.10;99.90;;;;;;4179872;28;20017;-79
2020/12/26 03:39:24;;;;;;;25.70;15.95;;;2.10;99.90;;;;;;4161455;28;20542;-77
2020/12/26 03:41:24;;;;;;;32.75;19.50;;;2.10;99.90;;;;;;4178820;28;20104;-79
2020/12/26 03:43:25;;;;;;;30.58;20.75;;;2.10;99.90;;;;;;4160602;28;20029;-79
2020/12/26 03:45:25;;;;;;;31.05;19.50;;;2.10;99.90;;;;;;4178078;28;20556;-78
2020/12/26 03:47:26;;;;;;;33.22;20.70;;;2.00;99.90;;;;;;4178049;28;20297;-79
2020/12/26 03:49:27;;;;;;;27.95;17.30;;;2.00;99.90;;;;;;4178043;28;20468;-78
2020/12/26 03:51:27;;;;;;;44.85;20.30;;;2.00;99.90;;;;;;4177930;28;20037;-78
2020/12/26 03:53:28;;;;;;;32.92;21.60;;;2.00;99.90;;;;;;4178116;28;20052;-78
2020/12/26 03:55:28;;;;;;;29.65;19.15;;;2.00;99.90;;;;;;4177763;28;20141;-78
2020/12/26 03:57:29;;;;;;;32.90;19.42;;;2.00;99.90;;;;;;4177651;28;20029;-78
2020/12/26 03:59:29;;;;;;;33.92;19.30;;;2.00;99.90;;;;;;4177755;28;20029;-79
2020/12/26 04:01:30;;;;;;;30.63;18.70;;;2.00;99.90;;;;;;4177982;28;20508;-79
2020/12/26 04:03:31;;;;;;;32.45;19.25;;;2.00;99.90;;;;;;4177762;28;20531;-79
2020/12/26 04:05:31;;;;;;;26.50;16.42;;;2.00;99.90;;;;;;4177650;28;20026;-78
2020/12/26 04:07:32;;;;;;;26.83;15.98;;;2.10;99.90;;;;;;4178452;28;20033;-79
2020/12/26 04:09:33;;;;;;;30.20;16.90;;;2.10;99.90;;;;;;4160802;28;20045;-79
2020/12/26 04:11:33;;;;;;;28.25;15.18;;;2.10;99.90;;;;;;4161572;28;20064;-79
2020/12/26 04:13:34;;;;;;;22.55;15.25;;;2.10;99.90;;;;;;4178708;28;20025;-78
2020/12/26 04:15:34;;;;;;;23.65;13.98;;;2.10;99.90;;;;;;4171334;28;20119;-79
2020/12/26 04:17:35;;;;;;;22.70;14.55;;;2.10;99.90;;;;;;4146788;28;20499;-79
2020/12/26 04:19:36;;;;;;;24.35;12.27;;;2.10;99.90;;;;;;4164482;28;20059;-78
2020/12/26 04:21:36;;;;;;;21.85;13.20;;;2.10;99.90;;;;;;4164774;28;20108;-78
2020/12/26 04:23:37;;;;;;;22.10;12.85;;;2.20;99.90;;;;;;4144256;28;20058;-78
2020/12/26 04:25:38;;;;;;;19.58;12.32;;;2.10;99.90;;;;;;4153872;28;20033;-78
2020/12/26 04:27:38;;;;;;;19.75;12.02;;;2.10;99.90;;;;;;4177118;28;20079;-78
2020/12/26 04:29:39;;;;;;;19.60;11.45;;;2.00;99.90;;;;;;4178550;28;20029;-78
2020/12/26 04:31:39;;;;;;;21.10;11.90;;;2.20;99.90;;;;;;4178693;28;20120;-78
2020/12/26 04:33:40;;;;;;;18.63;10.20;;;2.30;99.90;;;;;;4178906;28;20211;-79
2020/12/26 04:35:41;;;;;;;21.35;11.45;;;2.20;99.90;;;;;;4156962;28;20080;-78
2020/12/26 04:37:41;;;;;;;19.70;10.55;;;2.10;99.90;;;;;;4155828;28;20053;-78
2020/12/26 04:39:43;;;;;;;17.02;10.57;;;2.10;99.90;;;;;;4168073;28;20029;-78
2020/12/26 04:41:44;;;;;;;18.42;10.88;;;2.10;99.90;;;;;;4171743;28;20026;-79
2020/12/26 04:43:46;;;;;;;15.57;10.15;;;2.10;99.90;;;;;;4170119;28;20036;-79
2020/12/26 04:45:52;;;;;;;15.13;9.00;;;2.10;99.90;;;;;;4169816;28;20038;-78
2020/12/26 04:48:01;;;;;;;16.55;9.40;;;2.10;99.90;;;;;;4139372;28;20096;-79
2020/12/26 04:50:03;;;;;;;16.02;9.98;;;2.30;99.90;;;;;;4128561;28;20486;-77
2020/12/26 04:52:04;;;;;;;16.65;9.00;;;2.10;99.90;;;;;;4129742;28;20023;-78
2020/12/26 04:54:26;;;;;;;21.00;9.50;;;2.10;99.90;;;;;;4136333;28;20072;-78
2020/12/26 04:56:32;;;;;;;22.40;11.40;;;2.00;99.90;;;;;;4144335;28;20030;-78
2020/12/26 04:58:38;;;;;;;16.38;9.15;;;2.00;99.90;;;;;;4143492;28;20033;-78
2020/12/26 05:00:39;;;;;;;16.83;8.50;;;2.00;99.90;;;;;;4144397;28;20026;-79
2020/12/26 05:02:48;;;;;;;15.95;8.88;;;2.00;99.90;;;;;;4131318;28;20019;-79
2020/12/26 05:04:50;;;;;;;24.67;8.98;;;2.00;99.90;;;;;;4131835;28;20026;-78
2020/12/26 05:06:54;;;;;;;17.00;8.52;;;2.00;99.90;;;;;;4132152;28;20168;-79
2020/12/26 05:08:54;;;;;;;15.07;7.38;;;2.00;99.90;;;;;;4137109;28;20018;-79
2020/12/26 05:10:56;;;;;;;14.52;8.38;;;1.80;99.90;;;;;;4135772;28;20018;-79
2020/12/26 05:12:56;;;;;;;17.42;7.57;;;2.00;99.90;;;;;;4141575;28;20046;-79
2020/12/26 05:15:01;;;;;;;13.25;7.47;;;2.40;99.90;;;;;;4144132;28;20129;-78
2020/12/26 05:17:01;;;;;;;19.23;9.98;;;2.10;99.90;;;;;;4145707;28;20030;-77
2020/12/26 05:19:02;;;;;;;18.27;9.55;;;2.10;99.90;;;;;;4144706;28;20486;-78
2020/12/26 05:21:03;;;;;;;13.32;6.97;;;2.00;99.90;;;;;;4146060;28;20022;-78
2020/12/26 05:23:07;;;;;;;10.40;7.25;;;2.00;99.90;;;;;;4132382;28;20112;-78
2020/12/26 05:25:10;;;;;;;20.08;7.72;;;2.00;99.90;;;;;;4145967;28;20052;-78
2020/12/26 05:27:10;;;;;;;16.65;8.05;;;2.40;99.90;;;;;;4148441;28;20394;-79
2020/12/26 05:29:12;;;;;;;14.15;7.97;;;2.00;99.90;;;;;;4146246;28;20121;-79
2020/12/26 05:31:13;;;;;;;13.20;7.28;;;2.00;99.90;;;;;;4147325;28;20334;-78
2020/12/26 05:33:14;;;;;;;16.02;8.32;;;1.90;99.90;;;;;;4146013;28;20030;-78
2020/12/26 05:35:15;;;;;;;14.82;8.00;;;2.00;99.90;;;;;;4148776;28;20126;-79
2020/12/26 05:37:19;;;;;;;12.18;6.47;;;2.00;99.90;;;;;;4147502;28;20650;-79
2020/12/26 05:39:27;;;;;;;14.35;7.18;;;2.00;99.90;;;;;;4147411;28;20038;-79
2020/12/26 05:41:31;;;;;;;19.15;7.47;;;2.10;99.90;;;;;;4148329;28;20380;-79
2020/12/26 05:43:32;;;;;;;12.20;7.32;;;2.10;99.90;;;;;;4147348;28;20539;-79
2020/12/26 05:45:43;;;;;;;10.68;8.35;;;2.10;99.90;;;;;;4146529;28;20025;-79
2020/12/26 05:47:44;;;;;;;17.38;8.57;;;2.10;99.90;;;;;;4160910;28;20041;-79
2020/12/26 05:49:44;;;;;;;31.10;9.90;;;2.20;99.90;;;;;;4163538;28;20025;-79
2020/12/26 05:51:46;;;;;;;17.52;7.70;;;2.20;99.90;;;;;;4180075;28;20116;-79
2020/12/26 05:53:47;;;;;;;13.13;7.10;;;2.20;99.90;;;;;;4162597;28;20025;-79
2020/12/26 05:55:48;;;;;;;10.60;6.30;;;2.30;99.90;;;;;;4181455;28;20079;-78
2020/12/26 05:57:55;;;;;;;14.27;7.75;;;2.30;99.90;;;;;;4161827;28;20520;-78
2020/12/26 05:59:55;;;;;;;22.00;6.43;;;2.40;99.90;;;;;;4179932;28;20716;-79
2020/12/26 06:01:56;;;;;;;9.93;6.95;;;2.40;99.90;;;;;;4179660;28;20035;-78
2020/12/26 06:04:07;;;;;;;8.80;5.85;;;2.40;99.90;;;;;;4161660;28;20496;-79
2020/12/26 06:06:07;;;;;;;14.18;6.22;;;2.50;99.90;;;;;;4162593;28;20033;-79
2020/12/26 06:08:10;;;;;;;12.18;6.45;;;2.50;99.90;;;;;;4163554;28;20032;-78
2020/12/26 06:10:11;;;;;;;13.55;5.63;;;2.50;99.90;;;;;;4181057;28;20032;-79
2020/12/26 06:12:16;;;;;;;15.45;6.68;;;2.60;99.90;;;;;;4180898;28;20085;-78
2020/12/26 06:14:18;;;;;;;14.50;6.18;;;2.60;99.90;;;;;;4175437;28;20044;-78
2020/12/26 06:16:22;;;;;;;9.93;5.78;;;2.60;99.90;;;;;;4180365;28;20480;-78
2020/12/26 06:18:24;;;;;;;9.85;5.43;;;2.60;99.90;;;;;;4179716;28;20614;-78
2020/12/26 06:20:24;;;;;;;11.68;6.20;;;2.60;99.90;;;;;;4161841;28;20029;-79
2020/12/26 06:22:40;;;;;;;10.25;6.32;;;2.60;99.90;;;;;;4179553;28;20033;-78
2020/12/26 06:24:41;;;;;;;10.32;6.40;;;2.60;99.90;;;;;;4180465;28;20109;-79
2020/12/26 06:26:46;;;;;;;9.57;6.10;;;2.60;99.90;;;;;;4180047;28;20025;-79
2020/12/26 06:28:47;;;;;;;9.70;6.00;;;2.60;99.90;;;;;;4181204;28;20495;-79
2020/12/26 06:30:49;;;;;;;12.02;7.35;;;2.70;99.90;;;;;;4180878;28;20029;-79
2020/12/26 06:32:51;;;;;;;13.15;7.50;;;2.80;99.90;;;;;;4179706;28;20036;-79
2020/12/26 06:34:52;;;;;;;9.57;5.95;;;2.80;99.90;;;;;;4162672;28;20058;-79
2020/12/26 06:36:55;;;;;;;9.88;7.10;;;2.90;99.90;;;;;;4165763;28;20127;-79
2020/12/26 06:38:55;;;;;;;13.00;6.72;;;2.90;99.90;;;;;;4168895;28;20032;-79
2020/12/26 06:40:58;;;;;;;9.57;7.40;;;2.90;99.90;;;;;;4180866;28;20163;-79
2020/12/26 06:42:58;;;;;;;14.13;7.70;;;2.90;99.90;;;;;;4161868;28;20172;-79
2020/12/26 06:44:59;;;;;;;15.30;8.70;;;2.90;99.90;;;;;;4176598;28;20021;-79
2020/12/26 06:46:59;;;;;;;13.70;7.88;;;2.90;99.90;;;;;;4180007;28;20022;-79
2020/12/26 06:49:01;;;;;;;15.57;9.35;;;2.90;99.90;;;;;;4179359;28;20376;-79
2020/12/26 06:51:24;;;;;;;13.50;8.98;;;2.90;99.90;;;;;;4170496;28;20451;-78
2020/12/26 06:53:35;;;;;;;16.60;8.93;;;2.90;99.90;;;;;;4166437;28;20037;-78
2020/12/26 06:55:40;;;;;;;13.05;7.78;;;3.00;99.90;;;;;;4180253;28;20380;-79
2020/12/26 06:57:41;;;;;;;19.42;9.35;;;3.00;99.90;;;;;;4162045;28;20056;-79
2020/12/26 06:59:41;;;;;;;17.30;8.65;;;3.00;99.90;;;;;;4180639;28;20036;-78
2020/12/26 07:01:46;;;;;;;13.68;8.35;;;3.00;99.90;;;;;;4179635;28;20021;-79
2020/12/26 07:03:46;;;;;;;14.52;8.75;;;3.00;99.90;;;;;;4180157;28;20029;-78
2020/12/26 07:05:48;;;;;;;15.75;9.07;;;3.00;99.90;;;;;;4180340;28;20504;-78
2020/12/26 07:07:49;;;;;;;14.45;8.85;;;3.00;99.90;;;;;;4162795;28;20025;-78
2020/12/26 07:09:50;;;;;;;13.15;8.13;;;3.00;99.90;;;;;;4180180;28;20021;-78
2020/12/26 07:11:52;;;;;;;10.90;7.63;;;3.10;99.90;;;;;;4178569;28;20633;-78
2020/12/26 07:13:53;;;;;;;16.02;9.70;;;3.00;99.90;;;;;;4179237;28;20048;-78
2020/12/26 07:15:54;;;;;;;16.00;9.15;;;3.10;99.90;;;;;;4180007;28;20025;-78
2020/12/26 07:17:54;;;;;;;19.20;9.52;;;3.10;99.90;;;;;;4178867;28;20681;-78
2020/12/26 07:20:01;;;;;;;10.63;8.43;;;3.20;99.90;;;;;;4165154;28;20036;-79
2020/12/26 07:22:11;;;;;;;12.65;8.55;;;3.10;99.90;;;;;;4178589;28;20415;-78
2020/12/26 07:24:28;;;;;;;16.65;9.52;;;3.20;99.90;;;;;;4179463;28;20044;-79
2020/12/26 07:26:29;;;;;;;31.23;9.88;;;3.20;99.90;;;;;;4180021;28;20028;-79
2020/12/26 07:28:33;;;;;;;19.20;10.20;;;3.20;99.90;;;;;;4179491;28;20391;-78
2020/12/26 07:30:36;;;;;;;17.17;9.77;;;3.20;99.90;;;;;;4179848;28;20025;-78
2020/12/26 07:32:37;;;;;;;12.95;8.32;;;3.10;99.90;;;;;;4179870;28;20028;-79
2020/12/26 07:34:40;;;;;;;16.65;9.80;;;3.20;99.90;;;;;;4179261;28;20052;-79
2020/12/26 07:36:40;;;;;;;14.10;9.60;;;3.20;99.90;;;;;;4179560;28;20490;-79
2020/12/26 07:38:41;;;;;;;14.75;10.10;;;3.20;99.90;;;;;;4165854;28;20079;-79
2020/12/26 07:40:45;;;;;;;14.50;9.52;;;3.10;99.90;;;;;;4171213;28;20508;-78
2020/12/26 07:42:46;;;;;;;15.88;10.45;;;3.20;99.90;;;;;;4178472;28;20021;-78
2020/12/26 07:44:46;;;;;;;19.80;11.13;;;3.20;99.90;;;;;;4178133;28;20025;-78
2020/12/26 07:46:47;;;;;;;14.98;9.90;;;3.20;99.90;;;;;;4178949;28;20396;-79
2020/12/26 07:48:54;;;;;;;15.43;9.93;;;3.10;99.90;;;;;;4175985;28;20045;-78
2020/12/26 07:50:56;;;;;;;13.93;9.23;;;3.10;99.90;;;;;;4145614;28;20079;-78
2020/12/26 07:53:01;;;;;;;17.13;11.73;;;3.10;99.90;;;;;;4166506;28;20079;-80
2020/12/26 07:55:04;;;;;;;19.73;11.48;;;3.10;99.90;;;;;;4167021;28;20037;-78
2020/12/26 07:57:04;;;;;;;18.40;12.50;;;3.10;99.90;;;;;;4153784;28;20022;-79
2020/12/26 07:59:05;;;;;;;18.83;12.70;;;3.10;99.90;;;;;;4165251;28;20476;-81
2020/12/26 08:01:06;;;;;;;13.07;10.68;;;3.10;99.90;;;;;;4146754;28;20030;-80
2020/12/26 08:03:09;;;;;;;15.88;10.60;;;3.10;99.90;;;;;;4159525;28;20049;-78
2020/12/26 08:05:09;;;;;;;14.18;10.75;;;3.10;99.90;;;;;;4163712;28;20059;-78
2020/12/26 08:07:12;;;;;;;17.75;13.00;;;3.20;99.90;;;;;;4166291;28;20472;-79
2020/12/26 08:09:14;;;;;;;14.05;10.05;;;3.20;99.90;;;;;;4151146;28;20090;-78
2020/12/26 08:11:22;;;;;;;16.65;11.30;;;3.20;99.90;;;;;;4164915;28;20413;-77
2020/12/26 08:13:22;;;;;;;22.67;10.50;;;3.20;99.90;;;;;;4161941;28;20021;-79
2020/12/26 08:15:28;;;;;;;17.80;11.57;;;3.20;99.90;;;;;;4171345;28;20036;-79
2020/12/26 08:17:28;;;;;;;22.42;12.07;;;3.20;99.90;;;;;;4164767;28;20025;-79
2020/12/26 08:19:30;;;;;;;18.00;11.40;;;3.20;99.90;;;;;;4164435;28;20013;-79
2020/12/26 08:21:31;;;;;;;19.10;13.25;;;3.10;99.90;;;;;;4163387;28;20104;-80
2020/12/26 08:23:32;;;;;;;23.17;14.95;;;3.10;99.90;;;;;;4166417;28;20018;-78
2020/12/26 08:25:33;;;;;;;18.48;13.57;;;3.00;99.90;;;;;;4166242;28;20026;-80
2020/12/26 08:27:38;;;;;;;17.02;11.43;;;2.90;99.90;;;;;;4162577;28;20017;-79
2020/12/26 08:29:39;;;;;;;21.25;13.68;;;2.90;99.90;;;;;;4156245;28;20040;-79
2020/12/26 08:31:44;;;;;;;21.58;12.57;;;2.90;99.90;;;;;;4157227;28;20056;-80
2020/12/26 08:33:48;;;;;;;19.05;11.05;;;3.00;99.90;;;;;;4177871;28;20107;-80
2020/12/26 08:36:03;;;;;;;18.38;12.05;;;3.10;99.90;;;;;;4160014;28;20091;-81
2020/12/26 08:38:11;;;;;;;20.13;11.23;;;3.30;99.90;;;;;;4156599;28;20121;-78
2020/12/26 08:40:17;;;;;;;16.55;10.65;;;3.40;99.90;;;;;;4170375;28;20394;-78
2020/12/26 08:42:20;;;;;;;18.83;10.98;;;3.50;99.90;;;;;;4170322;28;20034;-79
2020/12/26 08:44:21;;;;;;;15.55;10.18;;;3.50;99.90;;;;;;4169853;28;20034;-78
2020/12/26 08:46:25;;;;;;;16.35;10.60;;;3.50;99.90;;;;;;4169248;28;20095;-78
2020/12/26 08:48:26;;;;;;;;;;;3.50;99.90;;;;;;4168651;28;20037;-79
2020/12/26 08:50:28;;;;;;;18.25;9.98;;;3.50;99.90;;;;;;4173166;28;19923;-79
2020/12/26 08:52:29;;;;;;;14.48;10.13;;;3.60;99.90;;;;;;4166355;28;20029;-78
2020/12/26 08:54:29;;;;;;;14.13;10.15;;;3.60;99.90;;;;;;4154139;28;20143;-78
2020/12/26 08:56:34;;;;;;;14.95;10.15;;;3.60;99.90;;;;;;4156539;28;20064;-78
2020/12/26 08:58:35;;;;;;;13.50;9.13;;;3.60;99.90;;;;;;4175905;28;20068;-79
2020/12/26 09:00:37;;;;;;;15.18;9.70;;;4.40;99.90;;;;;;4160698;28;20041;-78
2020/12/26 09:02:53;;;;;;;11.40;8.68;;;3.70;99.90;;;;;;4179392;28;20040;-79
2020/12/26 09:04:54;;;;;;;11.07;8.77;;;3.70;99.90;;;;;;4158593;28;20108;-80
2020/12/26 09:06:55;;;;;;;14.20;8.63;;;3.70;99.90;;;;;;4173351;28;20032;-79
2020/12/26 09:08:55;;;;;;;13.73;10.13;;;3.60;99.90;;;;;;4182293;28;20060;-79
2020/12/26 09:11:03;;;;;;;15.30;9.00;;;3.70;99.90;;;;;;4181056;28;20480;-80
2020/12/26 09:13:06;;;;;;;20.73;9.07;;;3.80;99.90;;;;;;4164785;28;20033;-78
2020/12/26 09:15:07;;;;;;;16.17;8.80;;;3.80;99.90;;;;;;4181452;28;20079;-78
2020/12/26 09:17:09;;;;;;;14.90;8.55;;;3.80;99.90;;;;;;4180393;28;20021;-78
2020/12/26 09:19:10;;;;;;;17.17;8.05;;;3.80;99.90;;;;;;4180705;28;20029;-80
2020/12/26 09:21:28;;;;;;;15.63;9.85;;;3.70;99.90;;;;;;4180532;28;20029;-79
2020/12/26 09:23:37;;;;;;;13.45;8.82;;;3.80;99.90;;;;;;4180649;28;20119;-79
2020/12/26 09:25:38;;;;;;;13.80;8.45;;;3.80;99.90;;;;;;4166160;28;20022;-79
2020/12/26 09:27:39;;;;;;;10.30;7.25;;;3.80;99.90;;;;;;4173671;28;20029;-79
2020/12/26 09:29:39;;;;;;;11.80;8.32;;;3.80;99.90;;;;;;4172295;28;20037;-79
2020/12/26 09:31:40;;;;;;;15.57;8.30;;;3.90;99.90;;;;;;4171085;28;20400;-78
2020/12/26 09:33:41;;;;;;;12.45;7.13;;;3.90;99.90;;;;;;4155512;28;20038;-78
2020/12/26 09:35:41;;;;;;;12.70;7.40;;;3.90;99.90;;;;;;4161299;28;20049;-78
2020/12/26 09:37:57;;;;;;;13.15;8.05;;;4.00;99.90;;;;;;4181186;28;20491;-78
2020/12/26 09:39:57;;;;;;;13.93;8.85;;;4.00;99.90;;;;;;4163938;28;20469;-78
2020/12/26 09:41:58;;;;;;;10.18;6.32;;;3.90;99.90;;;;;;4167581;28;20037;-78
2020/12/26 09:43:59;;;;;;;12.15;7.70;;;3.90;99.90;;;;;;4167424;28;20055;-80
2020/12/26 09:46:00;;;;;;;12.60;8.20;;;3.90;99.90;;;;;;4178499;28;20041;-78
2020/12/26 09:48:01;;;;;;;10.52;7.63;;;3.90;99.90;;;;;;4173233;28;20090;-76
2020/12/26 09:50:01;;;;;;;14.40;7.55;;;3.80;99.90;;;;;;4178930;28;20037;-77
2020/12/26 09:52:02;;;;;;;14.07;8.20;;;3.80;99.90;;;;;;4180601;28;20048;-78
2020/12/26 09:54:04;;;;;;;16.52;7.97;;;4.00;99.90;;;;;;4181341;28;20048;-78
2020/12/26 09:56:09;;;;;;;11.65;7.22;;;4.10;99.90;;;;;;4179740;28;20021;-78
2020/12/26 09:58:09;;;;;;;10.63;6.80;;;4.30;99.90;;;;;;4164180;28;20077;-78
2020/12/26 10:00:11;;;;;;;10.82;6.35;;;3.60;99.90;;;;;;4170823;28;20653;-79
2020/12/26 10:02:11;;;;;;;10.98;6.55;;;4.50;99.90;;;;;;4174397;28;20030;-78
2020/12/26 10:04:12;;;;;;;10.50;5.68;;;4.50;99.90;;;;;;4179311;28;20067;-78
2020/12/26 10:06:14;;;;;;;10.27;6.65;;;4.60;99.90;;;;;;4177764;28;20502;-79
2020/12/26 10:08:15;;;;;;;13.00;7.85;;;4.60;99.90;;;;;;4161020;28;20029;-79
2020/12/26 10:10:16;;;;;;;9.35;6.72;;;4.60;99.90;;;;;;4161988;28;20530;-78
2020/12/26 10:12:16;;;;;;;10.38;6.07;;;4.50;99.90;;;;;;4178918;28;20128;-78
2020/12/26 10:14:17;;;;;;;10.38;6.15;;;4.50;99.90;;;;;;4178489;28;20029;-78
2020/12/26 10:16:19;;;;;;;13.18;6.43;;;4.60;99.90;;;;;;4178784;28;20029;-79
2020/12/26 10:18:19;;;;;;;10.40;6.35;;;4.50;99.90;;;;;;4175711;28;20026;-78
2020/12/26 10:20:20;;;;;;;8.30;5.97;;;4.50;99.90;;;;;;4180957;28;20365;-78
2020/12/26 10:22:21;;;;;;;11.23;6.15;;;4.50;99.90;;;;;;4181070;28;21122;-79
2020/12/26 10:24:22;;;;;;;8.25;6.05;;;4.50;99.90;;;;;;4168255;28;20034;-79
2020/12/26 10:26:22;;;;;;;8.65;5.47;;;4.50;99.90;;;;;;4180702;28;20079;-79
2020/12/26 10:28:23;;;;;;;10.05;5.80;;;4.50;99.90;;;;;;4165526;28;20033;-79
2020/12/26 10:30:23;;;;;;;9.13;6.07;;;4.50;99.90;;;;;;4180778;28;20032;-78
2020/12/26 10:32:24;;;;;;;8.25;5.93;;;4.50;99.90;;;;;;4168903;28;20030;-78